IAD weather

Washington Dulles International Airport
Washington, District of Columbia, United States

Public forecast

Using degrees Fahrenheit for public forecast. Weather courtesy of forecast.io.

METAR (pilot weather report)

Retrieved 2017/11/24 12:52 UTC (29 minutes ago):

KIAD 241252Z 00000KT 10SM CLR M02/M03 A3009 RMK AO2 SLP192 T10171033

TAF (pilot weather forecast)

Retrieved 2017/11/24 12:42 UTC (39 minutes ago):

TAF KIAD 241141Z 2412/2518 VRB04KT P6SM SKC FM241800 18006KT P6SM SKC FM251700 24005KT P6SM BKN100